sensor_id;sensor_type;location;lat;lon;timestamp;temperature;humidity
68439;SHT31;55421;51.600;5.718;2023-09-19T00:00:55;16.19;78.15
68439;SHT31;55421;51.600;5.718;2023-09-19T00:03:37;16.17;78.23
68439;SHT31;55421;51.600;5.718;2023-09-19T00:06:05;16.16;78.28
68439;SHT31;55421;51.600;5.718;2023-09-19T00:08:34;16.15;78.26
68439;SHT31;55421;51.600;5.718;2023-09-19T00:11:00;16.14;78.21
68439;SHT31;55421;51.600;5.718;2023-09-19T00:13:28;16.12;78.28
68439;SHT31;55421;51.600;5.718;2023-09-19T00:15:55;16.09;78.29
68439;SHT31;55421;51.600;5.718;2023-09-19T00:18:21;16.07;78.30
68439;SHT31;55421;51.600;5.718;2023-09-19T00:20:48;16.05;78.34
68439;SHT31;55421;51.600;5.718;2023-09-19T00:23:17;16.03;78.33
68439;SHT31;55421;51.600;5.718;2023-09-19T00:25:45;16.01;78.40
68439;SHT31;55421;51.600;5.718;2023-09-19T00:28:11;15.99;78.42
68439;SHT31;55421;51.600;5.718;2023-09-19T00:30:38;15.96;78.50
68439;SHT31;55421;51.600;5.718;2023-09-19T00:33:04;15.93;78.50
68439;SHT31;55421;51.600;5.718;2023-09-19T00:35:33;15.90;78.59
68439;SHT31;55421;51.600;5.718;2023-09-19T00:38:03;15.86;78.69
68439;SHT31;55421;51.600;5.718;2023-09-19T00:40:30;15.84;78.72
68439;SHT31;55421;51.600;5.718;2023-09-19T00:42:57;15.82;78.80
68439;SHT31;55421;51.600;5.718;2023-09-19T00:45:27;15.82;78.80
68439;SHT31;55421;51.600;5.718;2023-09-19T00:47:54;15.80;78.80
68439;SHT31;55421;51.600;5.718;2023-09-19T00:50:22;15.81;78.80
68439;SHT31;55421;51.600;5.718;2023-09-19T00:52:53;15.80;78.80
68439;SHT31;55421;51.600;5.718;2023-09-19T00:55:24;15.78;78.77
68439;SHT31;55421;51.600;5.718;2023-09-19T00:57:55;15.76;78.72
68439;SHT31;55421;51.600;5.718;2023-09-19T01:00:22;15.74;78.77
68439;SHT31;55421;51.600;5.718;2023-09-19T01:02:50;15.73;78.71
68439;SHT31;55421;51.600;5.718;2023-09-19T01:05:16;15.69;78.70
68439;SHT31;55421;51.600;5.718;2023-09-19T01:07:43;15.68;78.73
68439;SHT31;55421;51.600;5.718;2023-09-19T01:10:12;15.65;78.62
68439;SHT31;55421;51.600;5.718;2023-09-19T01:18:35;15.61;78.52
68439;SHT31;55421;51.600;5.718;2023-09-19T01:21:26;15.59;78.57
68439;SHT31;55421;51.600;5.718;2023-09-19T01:24:07;15.58;78.56
68439;SHT31;55421;51.600;5.718;2023-09-19T01:30:42;15.55;78.38
68439;SHT31;55421;51.600;5.718;2023-09-19T01:32:53;15.54;78.22
68439;SHT31;55421;51.600;5.718;2023-09-19T01:35:21;15.54;78.20
68439;SHT31;55421;51.600;5.718;2023-09-19T01:37:47;15.53;78.02
68439;SHT31;55421;51.600;5.718;2023-09-19T01:40:14;15.52;77.96
68439;SHT31;55421;51.600;5.718;2023-09-19T01:42:56;15.52;77.91
68439;SHT31;55421;51.600;5.718;2023-09-19T01:48:46;15.51;77.50
68439;SHT31;55421;51.600;5.718;2023-09-19T01:51:33;15.48;77.34
68439;SHT31;55421;51.600;5.718;2023-09-19T01:54:12;15.45;77.18
68439;SHT31;55421;51.600;5.718;2023-09-19T01:56:52;15.42;77.13
68439;SHT31;55421;51.600;5.718;2023-09-19T01:59:35;15.40;77.01
68439;SHT31;55421;51.600;5.718;2023-09-19T02:02:09;15.39;77.00
68439;SHT31;55421;51.600;5.718;2023-09-19T02:04:38;15.39;76.87
68439;SHT31;55421;51.600;5.718;2023-09-19T02:07:05;15.37;76.76
68439;SHT31;55421;51.600;5.718;2023-09-19T02:09:34;15.36;76.75
68439;SHT31;55421;51.600;5.718;2023-09-19T02:12:05;15.34;76.69
68439;SHT31;55421;51.600;5.718;2023-09-19T02:14:32;15.33;76.55
68439;SHT31;55421;51.600;5.718;2023-09-19T02:16:58;15.29;76.51
68439;SHT31;55421;51.600;5.718;2023-09-19T02:19:26;15.25;76.60
68439;SHT31;55421;51.600;5.718;2023-09-19T02:21:54;15.24;76.52
68439;SHT31;55421;51.600;5.718;2023-09-19T02:24:20;15.22;76.49
68439;SHT31;55421;51.600;5.718;2023-09-19T02:26:47;15.19;76.42
68439;SHT31;55421;51.600;5.718;2023-09-19T02:29:13;15.17;76.50
68439;SHT31;55421;51.600;5.718;2023-09-19T02:31:40;15.15;76.50
68439;SHT31;55421;51.600;5.718;2023-09-19T02:34:06;15.15;76.45
68439;SHT31;55421;51.600;5.718;2023-09-19T02:36:35;15.11;76.36
68439;SHT31;55421;51.600;5.718;2023-09-19T02:39:03;15.10;76.37
68439;SHT31;55421;51.600;5.718;2023-09-19T02:41:31;15.07;76.24
68439;SHT31;55421;51.600;5.718;2023-09-19T02:43:59;15.02;76.21
68439;SHT31;55421;51.600;5.718;2023-09-19T02:46:25;14.98;76.30
68439;SHT31;55421;51.600;5.718;2023-09-19T02:48:52;14.98;76.23
68439;SHT31;55421;51.600;5.718;2023-09-19T02:51:18;14.96;76.20
68439;SHT31;55421;51.600;5.718;2023-09-19T02:53:45;14.95;76.04
68439;SHT31;55421;51.600;5.718;2023-09-19T02:56:13;14.93;75.94
68439;SHT31;55421;51.600;5.718;2023-09-19T02:58:41;14.91;75.99
68439;SHT31;55421;51.600;5.718;2023-09-19T03:01:12;14.90;75.93
68439;SHT31;55421;51.600;5.718;2023-09-19T03:03:38;14.88;75.80
68439;SHT31;55421;51.600;5.718;2023-09-19T03:06:06;14.85;75.66
68439;SHT31;55421;51.600;5.718;2023-09-19T03:08:35;14.83;75.47
68439;SHT31;55421;51.600;5.718;2023-09-19T03:11:05;14.80;75.37
68439;SHT31;55421;51.600;5.718;2023-09-19T03:13:34;14.80;75.40
68439;SHT31;55421;51.600;5.718;2023-09-19T03:16:02;14.77;75.33
68439;SHT31;55421;51.600;5.718;2023-09-19T03:18:32;14.76;75.11
68439;SHT31;55421;51.600;5.718;2023-09-19T03:21:00;14.75;74.95
68439;SHT31;55421;51.600;5.718;2023-09-19T03:23:27;14.75;74.91
68439;SHT31;55421;51.600;5.718;2023-09-19T03:25:55;14.73;74.82
68439;SHT31;55421;51.600;5.718;2023-09-19T03:28:22;14.71;74.80
68439;SHT31;55421;51.600;5.718;2023-09-19T03:31:01;14.71;74.79
68439;SHT31;55421;51.600;5.718;2023-09-19T03:33:30;14.68;74.78
68439;SHT31;55421;51.600;5.718;2023-09-19T03:36:00;14.67;74.73
68439;SHT31;55421;51.600;5.718;2023-09-19T03:38:31;14.67;74.72
68439;SHT31;55421;51.600;5.718;2023-09-19T03:40:58;14.67;74.78
68439;SHT31;55421;51.600;5.718;2023-09-19T03:43:25;14.66;74.75
68439;SHT31;55421;51.600;5.718;2023-09-19T03:45:52;14.65;74.77
68439;SHT31;55421;51.600;5.718;2023-09-19T03:48:20;14.64;74.81
68439;SHT31;55421;51.600;5.718;2023-09-19T03:50:48;14.64;74.81
68439;SHT31;55421;51.600;5.718;2023-09-19T03:53:14;14.63;74.84
68439;SHT31;55421;51.600;5.718;2023-09-19T03:55:41;14.63;74.84
68439;SHT31;55421;51.600;5.718;2023-09-19T03:58:07;14.60;74.77
68439;SHT31;55421;51.600;5.718;2023-09-19T04:00:34;14.58;74.86
68439;SHT31;55421;51.600;5.718;2023-09-19T04:03:00;14.56;74.91
68439;SHT31;55421;51.600;5.718;2023-09-19T04:05:31;14.56;74.96
68439;SHT31;55421;51.600;5.718;2023-09-19T04:07:59;14.56;75.05
68439;SHT31;55421;51.600;5.718;2023-09-19T04:10:26;14.56;75.10
68439;SHT31;55421;51.600;5.718;2023-09-19T04:12:53;14.55;75.14
68439;SHT31;55421;51.600;5.718;2023-09-19T04:15:21;14.54;75.19
68439;SHT31;55421;51.600;5.718;2023-09-19T04:17:49;14.54;75.23
68439;SHT31;55421;51.600;5.718;2023-09-19T04:20:20;14.53;75.32
68439;SHT31;55421;51.600;5.718;2023-09-19T04:22:49;14.53;75.37
68439;SHT31;55421;51.600;5.718;2023-09-19T04:25:15;14.53;75.40
68439;SHT31;55421;51.600;5.718;2023-09-19T04:27:42;14.52;75.45
68439;SHT31;55421;51.600;5.718;2023-09-19T04:30:10;14.52;75.52
68439;SHT31;55421;51.600;5.718;2023-09-19T04:32:38;14.52;75.62
68439;SHT31;55421;51.600;5.718;2023-09-19T04:35:08;14.49;75.70
68439;SHT31;55421;51.600;5.718;2023-09-19T04:37:37;14.48;75.79
68439;SHT31;55421;51.600;5.718;2023-09-19T04:40:09;14.48;75.87
68439;SHT31;55421;51.600;5.718;2023-09-19T04:42:40;14.47;75.93
68439;SHT31;55421;51.600;5.718;2023-09-19T04:45:08;14.46;76.00
68439;SHT31;55421;51.600;5.718;2023-09-19T04:47:36;14.45;76.09
68439;SHT31;55421;51.600;5.718;2023-09-19T04:50:08;14.44;76.16
68439;SHT31;55421;51.600;5.718;2023-09-19T04:52:40;14.46;76.30
68439;SHT31;55421;51.600;5.718;2023-09-19T04:55:11;14.47;76.31
68439;SHT31;55421;51.600;5.718;2023-09-19T04:57:46;14.48;76.40
68439;SHT31;55421;51.600;5.718;2023-09-19T05:00:16;14.50;76.49
68439;SHT31;55421;51.600;5.718;2023-09-19T05:02:51;14.52;76.53
68439;SHT31;55421;51.600;5.718;2023-09-19T05:05:19;14.53;76.59
68439;SHT31;55421;51.600;5.718;2023-09-19T05:07:45;14.56;76.64
68439;SHT31;55421;51.600;5.718;2023-09-19T05:10:12;14.59;76.66
68439;SHT31;55421;51.600;5.718;2023-09-19T05:12:40;14.60;76.73
68439;SHT31;55421;51.600;5.718;2023-09-19T05:15:07;14.61;76.77
68439;SHT31;55421;51.600;5.718;2023-09-19T05:17:34;14.62;76.74
68439;SHT31;55421;51.600;5.718;2023-09-19T05:20:02;14.63;76.77
68439;SHT31;55421;51.600;5.718;2023-09-19T05:22:32;14.63;76.80
68439;SHT31;55421;51.600;5.718;2023-09-19T05:24:59;14.64;76.82
68439;SHT31;55421;51.600;5.718;2023-09-19T05:27:25;14.65;76.87
68439;SHT31;55421;51.600;5.718;2023-09-19T05:29:52;14.66;76.90
68439;SHT31;55421;51.600;5.718;2023-09-19T05:32:19;14.65;76.88
68439;SHT31;55421;51.600;5.718;2023-09-19T05:34:46;14.66;76.90
68439;SHT31;55421;51.600;5.718;2023-09-19T05:37:19;14.65;76.97
68439;SHT31;55421;51.600;5.718;2023-09-19T05:39:46;14.66;77.00
68439;SHT31;55421;51.600;5.718;2023-09-19T05:42:12;14.66;77.00
68439;SHT31;55421;51.600;5.718;2023-09-19T05:44:39;14.68;77.02
68439;SHT31;55421;51.600;5.718;2023-09-19T05:47:06;14.69;77.09
68439;SHT31;55421;51.600;5.718;2023-09-19T05:49:35;14.69;77.12
68439;SHT31;55421;51.600;5.718;2023-09-19T05:52:05;14.69;77.19
68439;SHT31;55421;51.600;5.718;2023-09-19T05:54:32;14.69;77.22
68439;SHT31;55421;51.600;5.718;2023-09-19T05:57:00;14.72;77.25
68439;SHT31;55421;51.600;5.718;2023-09-19T05:59:27;14.74;77.30
68439;SHT31;55421;51.600;5.718;2023-09-19T06:01:54;14.76;77.34
68439;SHT31;55421;51.600;5.718;2023-09-19T06:04:21;14.78;77.42
68439;SHT31;55421;51.600;5.718;2023-09-19T06:06:47;14.81;77.41
68439;SHT31;55421;51.600;5.718;2023-09-19T06:09:14;14.83;77.40
68439;SHT31;55421;51.600;5.718;2023-09-19T06:11:41;14.84;77.41
68439;SHT31;55421;51.600;5.718;2023-09-19T06:14:08;14.84;77.40
68439;SHT31;55421;51.600;5.718;2023-09-19T06:16:36;14.86;77.49
68439;SHT31;55421;51.600;5.718;2023-09-19T06:19:04;14.88;77.50
68439;SHT31;55421;51.600;5.718;2023-09-19T06:21:35;14.90;77.51
68439;SHT31;55421;51.600;5.718;2023-09-19T06:24:02;14.91;77.57
68439;SHT31;55421;51.600;5.718;2023-09-19T06:26:29;14.93;77.60
68439;SHT31;55421;51.600;5.718;2023-09-19T06:28:57;14.95;77.60
68439;SHT31;55421;51.600;5.718;2023-09-19T06:31:25;14.96;77.60
68439;SHT31;55421;51.600;5.718;2023-09-19T06:33:54;14.98;77.69
68439;SHT31;55421;51.600;5.718;2023-09-19T06:36:21;15.01;77.75
68439;SHT31;55421;51.600;5.718;2023-09-19T06:38:48;15.03;77.80
68439;SHT31;55421;51.600;5.718;2023-09-19T06:41:14;15.06;77.87
68439;SHT31;55421;51.600;5.718;2023-09-19T06:43:43;15.07;77.82
68439;SHT31;55421;51.600;5.718;2023-09-19T06:46:10;15.10;77.81
68439;SHT31;55421;51.600;5.718;2023-09-19T06:48:36;15.12;77.89
68439;SHT31;55421;51.600;5.718;2023-09-19T06:51:04;15.14;77.90
68439;SHT31;55421;51.600;5.718;2023-09-19T06:53:34;15.15;77.92
68439;SHT31;55421;51.600;5.718;2023-09-19T06:56:02;15.19;77.90
68439;SHT31;55421;51.600;5.718;2023-09-19T06:58:29;15.23;77.99
68439;SHT31;55421;51.600;5.718;2023-09-19T07:00:55;15.25;77.93
68439;SHT31;55421;51.600;5.718;2023-09-19T07:03:23;15.29;77.97
68439;SHT31;55421;51.600;5.718;2023-09-19T07:05:52;15.31;77.89
68439;SHT31;55421;51.600;5.718;2023-09-19T07:08:18;15.34;77.81
68439;SHT31;55421;51.600;5.718;2023-09-19T07:10:46;15.37;77.84
68439;SHT31;55421;51.600;5.718;2023-09-19T07:13:15;15.40;77.90
68439;SHT31;55421;51.600;5.718;2023-09-19T07:15:43;15.44;77.92
68439;SHT31;55421;51.600;5.718;2023-09-19T07:18:14;15.47;77.82
68439;SHT31;55421;51.600;5.718;2023-09-19T07:20:42;15.48;77.79
68439;SHT31;55421;51.600;5.718;2023-09-19T07:23:18;15.51;77.70
68439;SHT31;55421;51.600;5.718;2023-09-19T07:25:47;15.53;77.77
68439;SHT31;55421;51.600;5.718;2023-09-19T07:28:15;15.56;77.81
68439;SHT31;55421;51.600;5.718;2023-09-19T07:30:42;15.59;77.77
68439;SHT31;55421;51.600;5.718;2023-09-19T07:33:08;15.63;77.69
68439;SHT31;55421;51.600;5.718;2023-09-19T07:35:37;15.68;77.69
68439;SHT31;55421;51.600;5.718;2023-09-19T07:38:07;15.71;77.68
68439;SHT31;55421;51.600;5.718;2023-09-19T07:40:37;15.74;77.70
68439;SHT31;55421;51.600;5.718;2023-09-19T07:43:04;15.77;77.65
68439;SHT31;55421;51.600;5.718;2023-09-19T07:45:31;15.79;77.65
68439;SHT31;55421;51.600;5.718;2023-09-19T07:47:58;15.81;77.68
68439;SHT31;55421;51.600;5.718;2023-09-19T07:50:27;15.88;77.66
68439;SHT31;55421;51.600;5.718;2023-09-19T07:52:55;15.98;77.60
68439;SHT31;55421;51.600;5.718;2023-09-19T07:55:22;16.07;77.47
68439;SHT31;55421;51.600;5.718;2023-09-19T07:57:51;16.12;77.13
68439;SHT31;55421;51.600;5.718;2023-09-19T08:00:18;16.21;77.18
68439;SHT31;55421;51.600;5.718;2023-09-19T08:02:45;16.30;76.82
68439;SHT31;55421;51.600;5.718;2023-09-19T08:05:12;16.34;76.64
68439;SHT31;55421;51.600;5.718;2023-09-19T08:07:43;16.41;76.66
68439;SHT31;55421;51.600;5.718;2023-09-19T08:10:14;16.48;76.50
68439;SHT31;55421;51.600;5.718;2023-09-19T08:12:42;16.54;76.35
68439;SHT31;55421;51.600;5.718;2023-09-19T08:15:13;16.61;76.18
68439;SHT31;55421;51.600;5.718;2023-09-19T08:17:41;16.65;76.06
68439;SHT31;55421;51.600;5.718;2023-09-19T08:20:09;16.69;75.92
68439;SHT31;55421;51.600;5.718;2023-09-19T08:22:43;16.74;75.77
68439;SHT31;55421;51.600;5.718;2023-09-19T08:25:14;16.79;75.44
68439;SHT31;55421;51.600;5.718;2023-09-19T08:27:47;16.84;75.39
68439;SHT31;55421;51.600;5.718;2023-09-19T08:30:16;16.90;75.37
68439;SHT31;55421;51.600;5.718;2023-09-19T08:32:44;16.97;75.10
68439;SHT31;55421;51.600;5.718;2023-09-19T08:35:12;17.02;75.07
68439;SHT31;55421;51.600;5.718;2023-09-19T08:37:39;17.09;74.77
68439;SHT31;55421;51.600;5.718;2023-09-19T08:40:05;17.13;74.51
68439;SHT31;55421;51.600;5.718;2023-09-19T08:42:49;17.19;74.63
68439;SHT31;55421;51.600;5.718;2023-09-19T08:45:17;17.29;74.60
68439;SHT31;55421;51.600;5.718;2023-09-19T08:47:56;17.38;74.25
68439;SHT31;55421;51.600;5.718;2023-09-19T08:51:25;17.50;74.02
68439;SHT31;55421;51.600;5.718;2023-09-19T08:54:22;17.58;73.47
68439;SHT31;55421;51.600;5.718;2023-09-19T08:56:55;17.59;73.53
68439;SHT31;55421;51.600;5.718;2023-09-19T08:59:29;17.68;73.55
68439;SHT31;55421;51.600;5.718;2023-09-19T09:01:57;17.85;73.51
68439;SHT31;55421;51.600;5.718;2023-09-19T09:04:25;17.98;73.02
68439;SHT31;55421;51.600;5.718;2023-09-19T09:06:53;17.96;72.61
68439;SHT31;55421;51.600;5.718;2023-09-19T09:09:21;17.96;72.29
68439;SHT31;55421;51.600;5.718;2023-09-19T09:11:50;18.06;72.02
68439;SHT31;55421;51.600;5.718;2023-09-19T09:14:19;18.19;71.74
68439;SHT31;55421;51.600;5.718;2023-09-19T09:16:48;18.25;71.31
68439;SHT31;55421;51.600;5.718;2023-09-19T09:19:14;18.31;70.90
68439;SHT31;55421;51.600;5.718;2023-09-19T09:21:47;18.36;70.68
68439;SHT31;55421;51.600;5.718;2023-09-19T09:24:25;18.38;70.53
68439;SHT31;55421;51.600;5.718;2023-09-19T09:26:57;18.43;70.43
68439;SHT31;55421;51.600;5.718;2023-09-19T09:29:40;18.50;70.68
68439;SHT31;55421;51.600;5.718;2023-09-19T09:32:16;18.61;70.73
68439;SHT31;55421;51.600;5.718;2023-09-19T09:34:52;18.70;70.53
68439;SHT31;55421;51.600;5.718;2023-09-19T09:37:24;18.79;70.44
68439;SHT31;55421;51.600;5.718;2023-09-19T09:39:57;18.86;69.99
68439;SHT31;55421;51.600;5.718;2023-09-19T09:42:45;18.86;69.85
68439;SHT31;55421;51.600;5.718;2023-09-19T09:45:19;18.87;69.15
68439;SHT31;55421;51.600;5.718;2023-09-19T09:48:00;18.90;68.82
68439;SHT31;55421;51.600;5.718;2023-09-19T09:50:30;18.93;69.16
68439;SHT31;55421;51.600;5.718;2023-09-19T09:53:25;19.01;69.29
68439;SHT31;55421;51.600;5.718;2023-09-19T09:58:51;19.05;68.07
68439;SHT31;55421;51.600;5.718;2023-09-19T10:01:25;19.09;68.05
68439;SHT31;55421;51.600;5.718;2023-09-19T10:03:58;19.14;67.88
68439;SHT31;55421;51.600;5.718;2023-09-19T10:06:26;19.20;67.38
68439;SHT31;55421;51.600;5.718;2023-09-19T10:09:14;19.23;66.52
68439;SHT31;55421;51.600;5.718;2023-09-19T10:11:44;19.22;66.23
68439;SHT31;55421;51.600;5.718;2023-09-19T10:14:17;19.30;66.26
68439;SHT31;55421;51.600;5.718;2023-09-19T10:16:49;19.39;66.09
68439;SHT31;55421;51.600;5.718;2023-09-19T10:19:29;19.41;66.14
68439;SHT31;55421;51.600;5.718;2023-09-19T10:22:03;19.50;66.59
68439;SHT31;55421;51.600;5.718;2023-09-19T10:24:34;19.67;66.18
68439;SHT31;55421;51.600;5.718;2023-09-19T10:27:04;19.73;65.61
68439;SHT31;55421;51.600;5.718;2023-09-19T10:29:35;19.83;65.85
68439;SHT31;55421;51.600;5.718;2023-09-19T10:32:05;19.95;65.56
68439;SHT31;55421;51.600;5.718;2023-09-19T10:34:33;20.05;65.21
68439;SHT31;55421;51.600;5.718;2023-09-19T10:37:02;20.00;65.12
68439;SHT31;55421;51.600;5.718;2023-09-19T10:39:32;19.98;64.44
68439;SHT31;55421;51.600;5.718;2023-09-19T10:42:01;19.97;64.33
68439;SHT31;55421;51.600;5.718;2023-09-19T10:44:32;20.00;64.34
68439;SHT31;55421;51.600;5.718;2023-09-19T10:46:59;19.96;64.27
68439;SHT31;55421;51.600;5.718;2023-09-19T10:49:26;19.97;64.42
68439;SHT31;55421;51.600;5.718;2023-09-19T10:51:53;19.95;63.78
68439;SHT31;55421;51.600;5.718;2023-09-19T10:54:25;19.97;63.87
68439;SHT31;55421;51.600;5.718;2023-09-19T10:56:58;19.97;63.75
68439;SHT31;55421;51.600;5.718;2023-09-19T10:59:25;20.00;63.20
68439;SHT31;55421;51.600;5.718;2023-09-19T11:02:15;19.98;63.78
68439;SHT31;55421;51.600;5.718;2023-09-19T11:04:44;20.04;63.57
68439;SHT31;55421;51.600;5.718;2023-09-19T11:07:14;20.06;63.70
68439;SHT31;55421;51.600;5.718;2023-09-19T11:09:51;20.13;63.62
68439;SHT31;55421;51.600;5.718;2023-09-19T11:15:07;20.20;63.02
68439;SHT31;55421;51.600;5.718;2023-09-19T11:17:35;20.23;62.98
68439;SHT31;55421;51.600;5.718;2023-09-19T11:30:32;20.26;62.64
68439;SHT31;55421;51.600;5.718;2023-09-19T11:35:58;20.33;62.76
68439;SHT31;55421;51.600;5.718;2023-09-19T11:46:53;20.42;61.60
68439;SHT31;55421;51.600;5.718;2023-09-19T11:49:26;20.42;61.73
68439;SHT31;55421;51.600;5.718;2023-09-19T11:52:02;20.43;61.97
68439;SHT31;55421;51.600;5.718;2023-09-19T11:54:35;20.47;61.71
68439;SHT31;55421;51.600;5.718;2023-09-19T11:57:06;20.48;61.62
68439;SHT31;55421;51.600;5.718;2023-09-19T11:59:38;20.47;60.90
68439;SHT31;55421;51.600;5.718;2023-09-19T12:02:06;20.48;61.20
68439;SHT31;55421;51.600;5.718;2023-09-19T12:04:38;20.51;61.42
68439;SHT31;55421;51.600;5.718;2023-09-19T12:07:07;20.53;61.49
68439;SHT31;55421;51.600;5.718;2023-09-19T12:09:43;20.55;61.10
68439;SHT31;55421;51.600;5.718;2023-09-19T12:12:20;20.55;60.32
68439;SHT31;55421;51.600;5.718;2023-09-19T12:14:50;20.55;60.16
68439;SHT31;55421;51.600;5.718;2023-09-19T12:17:17;20.56;60.25
68439;SHT31;55421;51.600;5.718;2023-09-19T12:19:55;20.60;60.00
68439;SHT31;55421;51.600;5.718;2023-09-19T12:22:23;20.62;60.09
68439;SHT31;55421;51.600;5.718;2023-09-19T12:24:51;20.65;59.98
68439;SHT31;55421;51.600;5.718;2023-09-19T12:27:20;20.64;60.21
68439;SHT31;55421;51.600;5.718;2023-09-19T12:29:48;20.70;60.54
68439;SHT31;55421;51.600;5.718;2023-09-19T12:32:34;20.77;60.84
68439;SHT31;55421;51.600;5.718;2023-09-19T12:35:07;20.81;60.50
68439;SHT31;55421;51.600;5.718;2023-09-19T12:37:37;20.76;59.87
68439;SHT31;55421;51.600;5.718;2023-09-19T12:40:14;20.68;60.24
68439;SHT31;55421;51.600;5.718;2023-09-19T12:42:44;20.62;60.95
68439;SHT31;55421;51.600;5.718;2023-09-19T12:45:12;20.59;61.31
68439;SHT31;55421;51.600;5.718;2023-09-19T12:48:17;20.54;61.24
68439;SHT31;55421;51.600;5.718;2023-09-19T12:51:01;20.42;61.18
68439;SHT31;55421;51.600;5.718;2023-09-19T12:56:11;20.25;61.85
68439;SHT31;55421;51.600;5.718;2023-09-19T12:58:57;20.19;61.59
68439;SHT31;55421;51.600;5.718;2023-09-19T13:01:27;20.14;61.63
68439;SHT31;55421;51.600;5.718;2023-09-19T13:06:52;20.16;62.36
68439;SHT31;55421;51.600;5.718;2023-09-19T13:09:19;20.20;62.49
68439;SHT31;55421;51.600;5.718;2023-09-19T13:11:50;20.25;62.56
68439;SHT31;55421;51.600;5.718;2023-09-19T13:16:57;20.50;62.52
68439;SHT31;55421;51.600;5.718;2023-09-19T13:25:20;20.73;61.66
68439;SHT31;55421;51.600;5.718;2023-09-19T13:27:49;20.71;61.57
68439;SHT31;55421;51.600;5.718;2023-09-19T13:30:20;20.67;61.45
68439;SHT31;55421;51.600;5.718;2023-09-19T13:33:04;20.59;61.63
68439;SHT31;55421;51.600;5.718;2023-09-19T13:35:33;20.52;61.91
68439;SHT31;55421;51.600;5.718;2023-09-19T13:38:00;20.47;62.27
68439;SHT31;55421;51.600;5.718;2023-09-19T13:40:27;20.46;61.95
68439;SHT31;55421;51.600;5.718;2023-09-19T13:42:56;20.47;61.70
68439;SHT31;55421;51.600;5.718;2023-09-19T13:45:23;20.50;61.92
68439;SHT31;55421;51.600;5.718;2023-09-19T13:47:53;20.51;61.80
68439;SHT31;55421;51.600;5.718;2023-09-19T13:50:20;20.46;61.93
68439;SHT31;55421;51.600;5.718;2023-09-19T13:52:50;20.42;61.78
68439;SHT31;55421;51.600;5.718;2023-09-19T13:55:17;20.37;61.75
68439;SHT31;55421;51.600;5.718;2023-09-19T13:57:49;20.38;61.79
68439;SHT31;55421;51.600;5.718;2023-09-19T14:00:18;20.42;61.73
68439;SHT31;55421;51.600;5.718;2023-09-19T14:02:45;20.44;61.79
68439;SHT31;55421;51.600;5.718;2023-09-19T14:05:12;20.45;61.76
68439;SHT31;55421;51.600;5.718;2023-09-19T14:07:41;20.43;61.53
68439;SHT31;55421;51.600;5.718;2023-09-19T14:10:09;20.39;61.76
68439;SHT31;55421;51.600;5.718;2023-09-19T14:12:37;20.35;61.89
68439;SHT31;55421;51.600;5.718;2023-09-19T14:15:07;20.30;61.93
68439;SHT31;55421;51.600;5.718;2023-09-19T14:17:35;20.22;61.99
68439;SHT31;55421;51.600;5.718;2023-09-19T14:20:01;20.15;62.55
68439;SHT31;55421;51.600;5.718;2023-09-19T14:22:28;20.12;62.66
68439;SHT31;55421;51.600;5.718;2023-09-19T14:24:57;20.09;62.63
68439;SHT31;55421;51.600;5.718;2023-09-19T14:27:25;20.06;62.84
68439;SHT31;55421;51.600;5.718;2023-09-19T14:29:52;20.07;63.04
68439;SHT31;55421;51.600;5.718;2023-09-19T14:32:18;20.11;62.97
68439;SHT31;55421;51.600;5.718;2023-09-19T14:34:45;20.16;63.19
68439;SHT31;55421;51.600;5.718;2023-09-19T14:37:12;20.23;63.37
68439;SHT31;55421;51.600;5.718;2023-09-19T14:39:40;20.29;63.34
68439;SHT31;55421;51.600;5.718;2023-09-19T14:42:08;20.34;63.38
68439;SHT31;55421;51.600;5.718;2023-09-19T14:44:35;20.36;62.98
68439;SHT31;55421;51.600;5.718;2023-09-19T14:47:03;20.37;63.19
68439;SHT31;55421;51.600;5.718;2023-09-19T14:49:34;20.35;63.43
68439;SHT31;55421;51.600;5.718;2023-09-19T14:52:08;20.34;63.45
68439;SHT31;55421;51.600;5.718;2023-09-19T14:54:36;20.33;63.20
68439;SHT31;55421;51.600;5.718;2023-09-19T14:57:07;20.35;63.27
68439;SHT31;55421;51.600;5.718;2023-09-19T14:59:34;20.35;63.13
68439;SHT31;55421;51.600;5.718;2023-09-19T15:02:03;20.37;63.26
68439;SHT31;55421;51.600;5.718;2023-09-19T15:04:31;20.37;63.41
68439;SHT31;55421;51.600;5.718;2023-09-19T15:06:57;20.35;63.59
68439;SHT31;55421;51.600;5.718;2023-09-19T15:09:24;20.33;63.60
68439;SHT31;55421;51.600;5.718;2023-09-19T15:11:52;20.31;64.09
68439;SHT31;55421;51.600;5.718;2023-09-19T15:14:19;20.27;63.83
68439;SHT31;55421;51.600;5.718;2023-09-19T15:16:47;20.25;63.78
68439;SHT31;55421;51.600;5.718;2023-09-19T15:19:14;20.25;63.39
68439;SHT31;55421;51.600;5.718;2023-09-19T15:21:41;20.25;63.58
68439;SHT31;55421;51.600;5.718;2023-09-19T15:24:08;20.25;63.78
68439;SHT31;55421;51.600;5.718;2023-09-19T15:26:36;20.24;63.77
68439;SHT31;55421;51.600;5.718;2023-09-19T15:29:08;20.23;63.83
68439;SHT31;55421;51.600;5.718;2023-09-19T15:31:36;20.20;63.87
68439;SHT31;55421;51.600;5.718;2023-09-19T15:34:03;20.17;63.78
68439;SHT31;55421;51.600;5.718;2023-09-19T15:36:31;20.13;63.98
68439;SHT31;55421;51.600;5.718;2023-09-19T15:39:04;20.10;64.03
68439;SHT31;55421;51.600;5.718;2023-09-19T15:41:40;20.08;64.43
68439;SHT31;55421;51.600;5.718;2023-09-19T15:44:11;20.05;64.52
68439;SHT31;55421;51.600;5.718;2023-09-19T15:46:43;20.01;64.55
68439;SHT31;55421;51.600;5.718;2023-09-19T15:49:10;19.99;64.49
68439;SHT31;55421;51.600;5.718;2023-09-19T15:51:38;19.96;64.58
68439;SHT31;55421;51.600;5.718;2023-09-19T15:54:07;19.93;64.60
68439;SHT31;55421;51.600;5.718;2023-09-19T15:56:41;19.93;64.80
68439;SHT31;55421;51.600;5.718;2023-09-19T15:59:11;19.92;65.00
68439;SHT31;55421;51.600;5.718;2023-09-19T16:01:39;19.91;64.87
68439;SHT31;55421;51.600;5.718;2023-09-19T16:04:07;19.89;64.96
68439;SHT31;55421;51.600;5.718;2023-09-19T16:06:37;19.86;64.98
68439;SHT31;55421;51.600;5.718;2023-09-19T16:09:04;19.84;65.07
68439;SHT31;55421;51.600;5.718;2023-09-19T16:11:32;19.83;65.18
68439;SHT31;55421;51.600;5.718;2023-09-19T16:14:01;19.81;65.10
68439;SHT31;55421;51.600;5.718;2023-09-19T16:16:29;19.79;65.10
68439;SHT31;55421;51.600;5.718;2023-09-19T16:18:59;19.76;65.21
68439;SHT31;55421;51.600;5.718;2023-09-19T16:21:30;19.73;65.33
68439;SHT31;55421;51.600;5.718;2023-09-19T16:23:59;19.71;65.57
68439;SHT31;55421;51.600;5.718;2023-09-19T16:26:27;19.69;65.56
68439;SHT31;55421;51.600;5.718;2023-09-19T16:28:56;19.67;65.55
68439;SHT31;55421;51.600;5.718;2023-09-19T16:31:28;19.66;65.67
68439;SHT31;55421;51.600;5.718;2023-09-19T16:33:57;19.64;65.76
68439;SHT31;55421;51.600;5.718;2023-09-19T16:36:27;19.61;65.96
68439;SHT31;55421;51.600;5.718;2023-09-19T16:38:54;19.61;65.95
68439;SHT31;55421;51.600;5.718;2023-09-19T16:41:21;19.60;65.97